createdAt,value
2023-02-28T00:00:38.751Z,75.20
2023-02-28T00:03:05.912Z,75.40
2023-02-28T00:05:33.277Z,75.50
2023-02-28T00:08:00.370Z,75.20
2023-02-28T00:10:30.329Z,75.20
2023-02-28T00:13:04.380Z,75.30
2023-02-28T00:15:31.238Z,75.40
2023-02-28T00:17:58.083Z,75.40
2023-02-28T00:20:25.693Z,75.50
2023-02-28T00:22:54.101Z,75.40
2023-02-28T00:25:26.426Z,75.70
2023-02-28T00:27:53.627Z,75.80
2023-02-28T00:30:23.017Z,75.80
2023-02-28T00:32:50.859Z,76.00
2023-02-28T00:35:19.411Z,75.80
2023-02-28T00:37:46.209Z,75.80
2023-02-28T00:40:13.370Z,76.10
2023-02-28T00:42:40.377Z,76.00
2023-02-28T00:45:09.110Z,76.10
2023-02-28T00:47:36.594Z,76.30
2023-02-28T00:50:04.693Z,76.50
2023-02-28T00:52:31.731Z,76.40
2023-02-28T00:54:58.563Z,76.60
2023-02-28T00:57:28.193Z,76.60
2023-02-28T00:59:55.471Z,76.40
2023-02-28T01:02:23.639Z,76.70
2023-02-28T01:04:50.542Z,76.60
2023-02-28T01:07:17.385Z,77.00
2023-02-28T01:09:44.252Z,77.80
2023-02-28T01:12:11.068Z,77.30
2023-02-28T01:14:38.157Z,77.20
2023-02-28T01:17:05.057Z,77.30
2023-02-28T01:19:31.846Z,77.40
2023-02-28T01:22:01.156Z,77.50
2023-02-28T01:24:27.936Z,78.20
2023-02-28T01:26:54.707Z,77.30
2023-02-28T01:29:21.526Z,77.10
2023-02-28T01:31:48.328Z,77.90
2023-02-28T01:34:15.454Z,77.40
2023-02-28T01:36:42.296Z,77.40
2023-02-28T01:39:09.043Z,77.30
2023-02-28T01:41:36.339Z,77.50
2023-02-28T01:44:45.283Z,77.60
2023-02-28T01:47:12.118Z,77.90
2023-02-28T01:49:39.293Z,77.80
2023-02-28T01:52:06.215Z,78.30
2023-02-28T01:54:35.124Z,78.50
2023-02-28T01:57:12.823Z,78.50
2023-02-28T01:59:55.439Z,79.50
2023-02-28T02:02:24.330Z,78.80
2023-02-28T02:05:04.881Z,78.90
2023-02-28T02:07:36.216Z,79.20
2023-02-28T02:10:08.799Z,79.20
2023-02-28T02:13:09.560Z,79.30
2023-02-28T02:15:56.645Z,79.40
2023-02-28T02:18:44.630Z,79.50
2023-02-28T02:21:27.124Z,79.60
2023-02-28T02:24:32.144Z,79.70
2023-02-28T02:27:04.846Z,80.00
2023-02-28T02:30:02.489Z,80.10
2023-02-28T02:32:57.256Z,80.10
2023-02-28T02:35:48.617Z,80.30
2023-02-28T02:38:21.599Z,80.30
2023-02-28T02:41:25.527Z,80.60
2023-02-28T02:44:03.620Z,80.70
2023-02-28T02:46:35.847Z,80.90
2023-02-28T02:49:07.206Z,80.70
2023-02-28T02:51:36.131Z,80.70
2023-02-28T02:54:29.590Z,80.90
2023-02-28T02:57:00.247Z,81.10
2023-02-28T02:59:29.359Z,81.20
2023-02-28T03:02:00.783Z,81.30
2023-02-28T03:04:33.297Z,81.30
2023-02-28T03:07:00.389Z,81.50
2023-02-28T03:09:27.704Z,81.40
2023-02-28T03:11:57.400Z,81.40
2023-02-28T03:14:40.379Z,81.20
2023-02-28T03:17:37.521Z,81.30
2023-02-28T03:20:47.312Z,81.80
2023-02-28T03:23:30.744Z,81.70
2023-02-28T03:26:03.224Z,81.70
2023-02-28T03:28:42.841Z,81.50
2023-02-28T03:31:21.767Z,81.40
2023-02-28T03:33:56.073Z,81.30
2023-02-28T03:36:33.557Z,81.40
2023-02-28T03:39:06.542Z,81.30
2023-02-28T03:41:42.957Z,81.50
2023-02-28T03:44:31.304Z,81.50
2023-02-28T03:47:10.127Z,81.40
2023-02-28T03:49:46.753Z,81.50
2023-02-28T03:52:13.660Z,81.30
2023-02-28T03:54:47.065Z,81.40
2023-02-28T03:57:24.528Z,81.40
2023-02-28T03:59:58.856Z,81.70
2023-02-28T04:02:25.877Z,81.50
2023-02-28T04:04:52.808Z,81.50
2023-02-28T04:07:19.775Z,81.60
2023-02-28T04:09:46.620Z,81.60
2023-02-28T04:12:13.463Z,81.60
2023-02-28T04:14:40.253Z,81.70
2023-02-28T04:17:07.045Z,81.80
2023-02-28T04:19:33.813Z,81.80
2023-02-28T04:22:00.603Z,81.80
2023-02-28T04:24:29.114Z,82.00
2023-02-28T04:26:58.174Z,82.10
2023-02-28T04:29:30.574Z,82.50
2023-02-28T04:31:59.172Z,82.30
2023-02-28T04:34:27.634Z,82.40
2023-02-28T04:37:11.502Z,83.20
2023-02-28T04:39:40.198Z,82.60
2023-02-28T04:42:07.611Z,82.20
2023-02-28T04:44:34.434Z,83.20
2023-02-28T04:47:01.279Z,82.60
2023-02-28T04:49:28.165Z,82.70
2023-02-28T04:51:56.135Z,82.70
2023-02-28T04:54:22.972Z,82.60
2023-02-28T04:56:50.928Z,82.70
2023-02-28T04:59:18.404Z,82.80
2023-02-28T05:01:49.490Z,82.60
2023-02-28T05:04:16.584Z,82.60
2023-02-28T05:06:43.412Z,83.10
2023-02-28T05:09:12.648Z,83.00
2023-02-28T05:11:40.734Z,83.20
2023-02-28T05:14:13.503Z,83.30
2023-02-28T05:16:40.609Z,83.00
2023-02-28T05:19:07.665Z,83.00
2023-02-28T05:21:52.835Z,82.80
2023-02-28T05:24:28.792Z,83.10
2023-02-28T05:26:56.184Z,82.90
2023-02-28T05:29:23.656Z,82.90
2023-02-28T05:31:50.662Z,82.80
2023-02-28T05:34:17.808Z,82.80
2023-02-28T05:36:44.980Z,83.00
2023-02-28T05:39:13.855Z,83.00
2023-02-28T05:41:42.665Z,83.00
2023-02-28T05:44:10.036Z,83.20
2023-02-28T05:46:36.853Z,83.20
2023-02-28T05:49:04.949Z,83.20
2023-02-28T05:51:32.340Z,83.40
2023-02-28T05:54:03.083Z,83.90
2023-02-28T05:56:30.306Z,84.00
2023-02-28T05:58:57.207Z,84.10
2023-02-28T06:01:27.704Z,84.10
2023-02-28T06:03:54.667Z,84.30
2023-02-28T06:06:21.423Z,84.40
2023-02-28T06:08:48.315Z,84.60
2023-02-28T06:11:20.892Z,84.70
2023-02-28T06:13:48.175Z,84.70
2023-02-28T06:16:15.051Z,85.00
2023-02-28T06:18:42.101Z,85.50
2023-02-28T06:21:09.915Z,85.70
2023-02-28T06:23:37.279Z,85.80
2023-02-28T06:26:04.367Z,85.70
2023-02-28T06:28:31.354Z,85.80
2023-02-28T06:30:58.300Z,85.90
2023-02-28T06:33:26.379Z,85.80
2023-02-28T06:35:53.558Z,85.60
2023-02-28T06:38:21.717Z,85.60
2023-02-28T06:40:55.231Z,85.60
2023-02-28T06:43:22.796Z,85.80
2023-02-28T06:45:50.037Z,86.00
2023-02-28T06:48:17.825Z,85.80
2023-02-28T06:50:44.677Z,85.20
2023-02-28T06:53:11.717Z,84.60
2023-02-28T06:55:39.954Z,85.00
2023-02-28T06:58:15.730Z,85.20
2023-02-28T07:00:43.499Z,85.20
2023-02-28T07:03:10.593Z,85.50
2023-02-28T07:05:38.682Z,85.40
2023-02-28T07:08:07.055Z,85.40
2023-02-28T07:10:34.460Z,85.60
2023-02-28T07:13:01.906Z,85.80
2023-02-28T07:15:28.788Z,86.00
2023-02-28T07:17:55.633Z,86.10
2023-02-28T07:20:22.664Z,85.70
2023-02-28T07:22:56.166Z,85.10
2023-02-28T07:25:30.519Z,85.20
2023-02-28T07:27:58.116Z,85.20
2023-02-28T07:30:24.931Z,84.90
2023-02-28T07:32:51.770Z,84.60
2023-02-28T07:35:18.790Z,84.20
2023-02-28T07:37:45.602Z,84.10
2023-02-28T07:40:13.119Z,84.30
2023-02-28T07:42:41.442Z,84.10
2023-02-28T07:45:11.217Z,84.20
2023-02-28T07:47:38.992Z,84.00
2023-02-28T07:50:08.062Z,83.40
2023-02-28T07:52:34.981Z,83.10
2023-02-28T07:55:02.059Z,82.60
2023-02-28T07:57:28.971Z,82.10
2023-02-28T07:59:55.824Z,82.20
2023-02-28T08:02:22.783Z,81.50
2023-02-28T08:04:50.475Z,80.90
2023-02-28T08:07:18.602Z,79.90
2023-02-28T08:09:46.322Z,79.20
2023-02-28T08:12:13.246Z,79.10
2023-02-28T08:14:40.953Z,78.80
2023-02-28T08:17:08.017Z,78.10
2023-02-28T08:19:34.831Z,77.50
2023-02-28T08:22:01.669Z,77.50
2023-02-28T08:24:28.555Z,77.60
2023-02-28T08:26:56.372Z,77.90
2023-02-28T08:29:23.499Z,78.00
2023-02-28T08:31:50.615Z,78.00
2023-02-28T08:34:17.829Z,77.80
2023-02-28T08:36:46.068Z,77.40
2023-02-28T08:39:14.049Z,77.20
2023-02-28T08:41:41.004Z,76.10
2023-02-28T08:44:08.128Z,75.80
2023-02-28T08:46:35.155Z,75.60
2023-02-28T08:49:02.924Z,75.70
2023-02-28T08:51:30.567Z,75.80
2023-02-28T08:54:00.965Z,75.20
2023-02-28T08:56:29.914Z,75.50
2023-02-28T08:58:57.915Z,75.50
2023-02-28T09:01:30.463Z,75.40
2023-02-28T09:03:58.491Z,75.40
2023-02-28T09:06:27.988Z,75.60
2023-02-28T09:08:59.524Z,75.00
2023-02-28T09:11:26.521Z,75.20
2023-02-28T09:13:53.470Z,74.90
2023-02-28T09:16:20.634Z,74.80
2023-02-28T09:18:47.623Z,74.70
2023-02-28T09:21:17.718Z,74.80
2023-02-28T09:23:45.900Z,75.00
2023-02-28T09:26:23.332Z,75.40
2023-02-28T09:28:50.836Z,75.20
2023-02-28T09:31:23.794Z,74.60
2023-02-28T09:33:53.163Z,74.50
2023-02-28T09:36:21.124Z,74.30
2023-02-28T09:38:50.557Z,73.90
2023-02-28T09:41:20.631Z,74.00
2023-02-28T09:43:53.167Z,74.00
2023-02-28T09:46:42.005Z,73.80
2023-02-28T09:49:20.724Z,74.10
2023-02-28T09:51:56.228Z,73.90
2023-02-28T09:54:26.244Z,73.60
2023-02-28T09:57:22.061Z,73.70
2023-02-28T10:00:18.268Z,73.80
2023-02-28T10:03:05.819Z,73.90
2023-02-28T10:05:51.724Z,73.40
2023-02-28T10:08:26.437Z,73.40
2023-02-28T10:10:59.670Z,72.70
2023-02-28T10:13:51.408Z,71.70
2023-02-28T10:16:24.956Z,72.70
2023-02-28T10:19:22.749Z,73.00
2023-02-28T10:22:00.106Z,72.80
2023-02-28T10:24:36.910Z,72.50
2023-02-28T10:27:24.845Z,72.20
2023-02-28T10:29:56.983Z,72.10
2023-02-28T10:32:32.778Z,72.60
2023-02-28T10:35:18.711Z,72.90
2023-02-28T10:37:49.904Z,72.90
2023-02-28T10:40:20.937Z,73.40
2023-02-28T10:43:16.206Z,72.90
2023-02-28T10:46:03.257Z,71.80
2023-02-28T10:48:47.060Z,71.50
2023-02-28T10:51:16.940Z,71.80
2023-02-28T10:54:02.249Z,72.40
2023-02-28T10:56:31.083Z,72.60
2023-02-28T10:58:58.869Z,72.60
2023-02-28T11:01:42.920Z,72.90
2023-02-28T11:04:30.397Z,73.30
2023-02-28T11:07:18.457Z,74.00
2023-02-28T11:09:50.446Z,73.80
2023-02-28T11:12:27.899Z,72.80
2023-02-28T11:14:59.406Z,71.80
2023-02-28T11:17:32.655Z,72.60
2023-02-28T11:20:08.383Z,72.40
2023-02-28T11:22:42.129Z,72.20
2023-02-28T11:25:18.270Z,72.00
2023-02-28T11:27:50.786Z,71.70
2023-02-28T11:30:37.209Z,72.10
2023-02-28T11:33:27.961Z,72.20
2023-02-28T11:36:00.168Z,72.10
2023-02-28T11:38:27.803Z,72.80
2023-02-28T11:40:58.590Z,72.90
2023-02-28T11:44:00.359Z,73.00
2023-02-28T11:46:45.137Z,72.40
2023-02-28T11:49:28.005Z,71.70
2023-02-28T11:51:57.596Z,72.50
2023-02-28T11:54:33.266Z,72.30
2023-02-28T11:57:09.501Z,71.90
2023-02-28T12:00:27.432Z,72.20
2023-02-28T12:03:27.836Z,72.90
2023-02-28T12:06:11.329Z,73.40
2023-02-28T12:09:15.761Z,73.30
2023-02-28T12:11:57.243Z,72.90
2023-02-28T12:14:42.896Z,72.40
2023-02-28T12:17:23.183Z,72.70
2023-02-28T12:20:30.116Z,73.10
2023-02-28T12:22:56.974Z,71.60
2023-02-28T12:25:50.057Z,72.10
2023-02-28T12:28:23.066Z,72.10
2023-02-28T12:31:14.156Z,72.20
2023-02-28T12:33:46.307Z,72.10
2023-02-28T12:36:20.093Z,72.30
2023-02-28T12:38:55.135Z,72.30
2023-02-28T12:41:37.566Z,71.90
2023-02-28T12:44:28.109Z,71.80
2023-02-28T12:46:59.110Z,71.70
2023-02-28T12:50:00.725Z,71.80
2023-02-28T12:52:40.730Z,71.60
2023-02-28T12:55:26.936Z,71.70
2023-02-28T12:58:22.430Z,71.70
2023-02-28T13:01:13.905Z,72.10
2023-02-28T13:03:46.880Z,72.00
2023-02-28T13:06:21.188Z,72.00
2023-02-28T13:08:47.934Z,71.90
2023-02-28T13:11:35.376Z,71.70
2023-02-28T13:14:17.615Z,71.50
2023-02-28T13:16:59.309Z,71.40
2023-02-28T13:19:33.578Z,72.00
2023-02-28T13:22:01.854Z,72.60
2023-02-28T13:24:53.729Z,71.80
2023-02-28T13:27:25.638Z,71.70
2023-02-28T13:29:54.202Z,71.20
2023-02-28T13:32:31.493Z,71.30
2023-02-28T13:34:58.401Z,71.30
2023-02-28T13:37:25.658Z,71.30
2023-02-28T13:40:08.108Z,70.70
2023-02-28T13:42:38.481Z,70.40
2023-02-28T13:45:05.575Z,70.30
2023-02-28T13:48:01.881Z,70.40
2023-02-28T13:50:39.066Z,70.00
2023-02-28T13:53:41.888Z,70.10
2023-02-28T13:56:28.285Z,70.00
2023-02-28T13:59:04.329Z,70.20
2023-02-28T14:01:46.571Z,69.90
2023-02-28T14:04:36.793Z,70.00
2023-02-28T14:07:04.476Z,70.20
2023-02-28T14:09:46.989Z,70.10
2023-02-28T14:12:51.578Z,69.50
2023-02-28T14:15:37.283Z,68.90
2023-02-28T14:18:23.368Z,68.70
2023-02-28T14:20:56.112Z,69.40
2023-02-28T14:23:45.725Z,69.50
2023-02-28T14:26:31.724Z,69.70
2023-02-28T14:29:16.044Z,69.80
2023-02-28T14:31:55.342Z,70.10
2023-02-28T14:34:25.024Z,70.90
2023-02-28T14:36:54.365Z,71.40
2023-02-28T14:39:24.950Z,71.70
2023-02-28T14:41:53.006Z,71.50
2023-02-28T14:44:24.387Z,71.90
2023-02-28T14:47:05.119Z,72.20
2023-02-28T14:49:39.100Z,71.90
2023-02-28T14:52:25.052Z,71.10
2023-02-28T14:55:01.036Z,71.00
2023-02-28T14:57:40.087Z,70.90
2023-02-28T15:00:29.144Z,71.50
2023-02-28T15:02:57.516Z,71.80
2023-02-28T15:05:32.836Z,72.10
2023-02-28T15:08:18.991Z,72.10
2023-02-28T15:10:58.539Z,72.30
2023-02-28T15:13:48.788Z,72.30
2023-02-28T15:16:21.474Z,72.30
2023-02-28T15:18:59.020Z,71.90
2023-02-28T15:21:35.653Z,71.60
2023-02-28T15:24:06.168Z,71.70
2023-02-28T15:26:45.664Z,71.50
2023-02-28T15:29:21.744Z,71.40
2023-02-28T15:32:06.705Z,71.30
2023-02-28T15:34:45.772Z,71.30
2023-02-28T15:37:31.836Z,71.60
2023-02-28T15:40:16.570Z,72.10
2023-02-28T15:42:58.313Z,72.60
2023-02-28T15:45:48.139Z,72.80
2023-02-28T15:48:23.122Z,72.80
2023-02-28T15:50:57.483Z,73.00
2023-02-28T15:53:30.073Z,73.20
2023-02-28T15:56:01.314Z,73.00
2023-02-28T15:58:29.252Z,73.00
2023-02-28T16:01:17.845Z,73.20
2023-02-28T16:03:48.880Z,73.50
2023-02-28T16:06:24.398Z,73.60
2023-02-28T16:08:52.423Z,73.50
2023-02-28T16:11:21.125Z,73.80
2023-02-28T16:13:48.192Z,73.80
2023-02-28T16:16:25.238Z,74.20
2023-02-28T16:18:53.141Z,74.10
2023-02-28T16:21:19.969Z,74.00
2023-02-28T16:23:46.828Z,73.90
2023-02-28T16:26:22.220Z,74.10
2023-02-28T16:28:49.563Z,74.10
2023-02-28T16:31:17.648Z,74.20
2023-02-28T16:33:45.919Z,74.30
2023-02-28T16:36:22.093Z,74.40
2023-02-28T16:38:49.072Z,74.40
2023-02-28T16:41:20.143Z,75.20
2023-02-28T16:43:52.753Z,74.90
2023-02-28T16:46:20.668Z,75.00
2023-02-28T16:48:52.484Z,75.00
2023-02-28T16:51:19.859Z,75.00
2023-02-28T16:53:47.148Z,75.10
2023-02-28T16:56:22.968Z,75.30
2023-02-28T16:58:51.176Z,75.60
2023-02-28T17:01:23.051Z,75.50
2023-02-28T17:03:50.757Z,75.40
2023-02-28T17:06:24.604Z,75.60
2023-02-28T17:08:52.350Z,75.70
2023-02-28T17:11:19.979Z,75.80
2023-02-28T17:13:48.647Z,76.10
2023-02-28T17:16:32.275Z,76.00
2023-02-28T17:19:05.430Z,76.20
2023-02-28T17:21:34.105Z,76.40
2023-02-28T17:24:01.354Z,76.50
2023-02-28T17:26:29.237Z,76.50
2023-02-28T17:28:57.967Z,76.70
2023-02-28T17:31:26.548Z,77.00
2023-02-28T17:33:57.647Z,77.30
2023-02-28T17:36:28.969Z,77.40
2023-02-28T17:38:56.634Z,77.60
2023-02-28T17:41:23.900Z,77.60
2023-02-28T17:43:51.554Z,77.90
2023-02-28T17:46:24.177Z,78.00
2023-02-28T17:48:53.013Z,78.00
2023-02-28T17:51:22.047Z,78.10
2023-02-28T17:53:49.196Z,77.90
2023-02-28T17:56:24.309Z,78.30
2023-02-28T17:58:52.998Z,78.20
2023-02-28T18:01:21.361Z,78.60
2023-02-28T18:03:48.818Z,79.00
2023-02-28T18:06:47.061Z,78.80
2023-02-28T18:09:19.523Z,78.80
2023-02-28T18:11:46.413Z,78.90
2023-02-28T18:14:13.667Z,78.80
2023-02-28T18:16:40.682Z,78.90
2023-02-28T18:19:08.582Z,79.20
2023-02-28T18:21:36.276Z,79.40
2023-02-28T18:24:03.191Z,79.20
2023-02-28T18:26:30.266Z,79.50
2023-02-28T18:28:57.512Z,79.60
2023-02-28T18:31:24.402Z,79.60
2023-02-28T18:33:52.873Z,79.60
2023-02-28T18:36:21.021Z,79.70
2023-02-28T18:38:50.502Z,79.70
2023-02-28T18:41:18.768Z,79.90
2023-02-28T18:43:45.606Z,80.20
2023-02-28T18:46:15.100Z,80.00
2023-02-28T18:48:42.036Z,80.20
2023-02-28T18:51:16.427Z,80.70
2023-02-28T18:53:44.302Z,81.10
2023-02-28T18:56:16.619Z,81.20
2023-02-28T18:58:43.745Z,81.30
2023-02-28T19:01:33.607Z,81.20
2023-02-28T19:04:02.338Z,81.10
2023-02-28T19:06:31.067Z,81.30
2023-02-28T19:08:59.930Z,81.50
2023-02-28T19:11:27.576Z,81.30
2023-02-28T19:13:54.486Z,81.20
2023-02-28T19:16:22.727Z,81.30
2023-02-28T19:18:50.368Z,81.20
2023-02-28T19:21:19.303Z,81.50
2023-02-28T19:23:46.302Z,81.60
2023-02-28T19:26:16.356Z,81.70
2023-02-28T19:28:43.646Z,82.00
2023-02-28T19:31:15.265Z,82.10
2023-02-28T19:33:42.786Z,82.40
2023-02-28T19:36:12.647Z,82.40
2023-02-28T19:38:40.368Z,82.60
2023-02-28T19:41:09.815Z,82.60
2023-02-28T19:43:36.894Z,82.90
2023-02-28T19:46:03.848Z,83.10
2023-02-28T19:48:30.825Z,82.90
2023-02-28T19:50:59.686Z,82.90
2023-02-28T19:53:27.108Z,82.80
2023-02-28T19:55:54.877Z,82.80
2023-02-28T19:58:22.360Z,82.90
2023-02-28T20:00:49.606Z,82.90
2023-02-28T20:03:18.481Z,82.90
2023-02-28T20:05:46.429Z,83.00
2023-02-28T20:08:14.486Z,82.90
2023-02-28T20:10:41.347Z,83.00
2023-02-28T20:13:08.728Z,83.30
2023-02-28T20:15:37.361Z,83.10
2023-02-28T20:18:04.918Z,83.30
2023-02-28T20:20:31.744Z,83.20
2023-02-28T20:22:58.593Z,83.10
2023-02-28T20:25:25.482Z,83.30
2023-02-28T20:27:53.755Z,83.50
2023-02-28T20:30:22.877Z,83.40
2023-02-28T20:32:50.222Z,83.40
2023-02-28T20:35:17.165Z,83.50
2023-02-28T20:37:44.728Z,83.50
2023-02-28T20:40:12.447Z,83.60
2023-02-28T20:42:39.260Z,83.50
2023-02-28T20:45:06.568Z,83.60
2023-02-28T20:47:33.477Z,83.80
2023-02-28T20:50:00.327Z,83.80
2023-02-28T20:52:27.156Z,84.20
2023-02-28T20:54:54.040Z,84.20
2023-02-28T20:57:20.860Z,84.30
2023-02-28T20:59:47.715Z,84.70
2023-02-28T21:02:19.088Z,84.70
2023-02-28T21:04:45.949Z,85.00
2023-02-28T21:07:12.698Z,85.10
2023-02-28T21:09:39.587Z,85.50
2023-02-28T21:12:06.512Z,85.70
2023-02-28T21:14:33.480Z,85.40
2023-02-28T21:17:00.543Z,85.30
2023-02-28T21:19:27.304Z,85.50
2023-02-28T21:21:55.360Z,85.30
2023-02-28T21:24:22.317Z,85.50
2023-02-28T21:26:49.571Z,85.70
2023-02-28T21:29:16.804Z,85.80
2023-02-28T21:31:43.965Z,85.60
2023-02-28T21:34:12.105Z,85.60
2023-02-28T21:36:41.681Z,85.60
2023-02-28T21:39:13.415Z,85.60
2023-02-28T21:41:41.644Z,85.50
2023-02-28T21:44:09.474Z,86.70
2023-02-28T21:46:36.337Z,86.20
2023-02-28T21:49:03.261Z,86.50
2023-02-28T21:51:31.496Z,86.50
2023-02-28T21:54:00.107Z,86.50
2023-02-28T21:56:32.246Z,86.90
2023-02-28T21:59:03.468Z,87.10
2023-02-28T22:01:35.803Z,87.10
2023-02-28T22:04:05.365Z,87.20
2023-02-28T22:06:34.388Z,87.30
2023-02-28T22:09:06.068Z,87.40
2023-02-28T22:11:34.583Z,87.80
2023-02-28T22:14:01.656Z,87.80
2023-02-28T22:16:49.681Z,87.60
2023-02-28T22:19:19.005Z,87.70
2023-02-28T22:21:47.458Z,88.00
2023-02-28T22:24:14.911Z,87.90
2023-02-28T22:26:41.844Z,87.90
2023-02-28T22:29:08.693Z,88.00
2023-02-28T22:31:36.644Z,88.10
2023-02-28T22:34:07.243Z,88.20
2023-02-28T22:36:34.544Z,88.40
2023-02-28T22:39:01.909Z,88.20
2023-02-28T22:41:29.318Z,88.20
2023-02-28T22:44:01.902Z,88.30
2023-02-28T22:46:30.668Z,88.40
2023-02-28T22:49:02.291Z,88.40
2023-02-28T22:51:30.766Z,88.60
2023-02-28T22:53:58.787Z,88.70
2023-02-28T22:56:28.409Z,89.10
2023-02-28T22:58:57.875Z,88.90
2023-02-28T23:01:27.329Z,89.20
2023-02-28T23:03:54.616Z,89.50
2023-02-28T23:06:24.505Z,89.40
2023-02-28T23:08:53.139Z,89.30
2023-02-28T23:11:23.140Z,89.50
2023-02-28T23:13:59.469Z,89.40
2023-02-28T23:16:39.231Z,89.30
2023-02-28T23:19:09.787Z,89.50
2023-02-28T23:21:37.108Z,89.70
2023-02-28T23:24:10.694Z,89.40
2023-02-28T23:26:39.782Z,89.40
2023-02-28T23:29:07.002Z,89.30
2023-02-28T23:31:34.049Z,89.30
2023-02-28T23:34:01.030Z,89.30
2023-02-28T23:36:29.509Z,89.30
2023-02-28T23:38:56.858Z,89.40
2023-02-28T23:41:24.607Z,89.50
2023-02-28T23:43:52.982Z,89.40
2023-02-28T23:46:20.797Z,89.50
2023-02-28T23:48:47.961Z,89.20
2023-02-28T23:51:19.259Z,89.50
2023-02-28T23:53:48.867Z,89.10
2023-02-28T23:56:18.360Z,89.50
2023-02-28T23:58:46.377Z,89.40
